Terminal Aerodrome Forecast
Issued by NWS Bismarck, ND

Home | Current Version | Previous Version | Text Only | Print | Product List | Glossary Off
Versions: 1 2 3 4 5 6 7 8 9 10 11 12 13 14 15 16 17 18 19 20

000
FTUS43 KBIS 301120
TAFISN
TAF
KISN 301120Z 3012/0112 33013KT 6SM -SN OVC025
     FM301800 33012KT P6SM VCSH OVC012
     FM010300 33004KT P6SM VCSH OVC010=

USA.gov is the U.S. government's official web portal to all federal, state and local government web resources and services.